GFLL

Lungi International Airport

Freetown, Sierra Leone
METAR GFLL 250300Z 28006KT 9999 BKN012 25/21 Q1010
Observed Flight Rules
May-25 @ 03:00 UTC (2 hours ago) Marginal Visual Flight Rules
Wind Visibility Clouds
280° at 6 knots 10,000+ meters
  • Broken at 1,200' AGL
Temperatures Readings
Current 25°C / 77°F
Dewpoint 21°C / 70°F
Humidity 79%
Altimeter 29.82" Hg
Pressure 1010 hPa
Elevation 27
METAR GFLL 250300Z 28006KT 9999 BKN012 25/21 Q1010
Observed Flight Rules
May-25 @ 03:00 UTC
(2 hours ago)
MVFR
Wind Visibility
280° at 6 knots 10,000+ meters
Clouds
  • Broken at 1,200' AGL
Temperature Dewpoint
25°C / 77°F 21°C / 70°F
Humidity Altimeter Pressure
79% 29.82" Hg 1010 hPa